sensor_id;sensor_type;location;lat;lon;timestamp;pressure;altitude;pressure_sealevel;temperature;humidity
30856;BME280;17570;0.000;0.000;2023-05-16T00:01:32;96498.80;;;23.67;48.77
30856;BME280;17570;0.000;0.000;2023-05-16T00:04:00;96500.63;;;23.66;48.04
30856;BME280;17570;0.000;0.000;2023-05-16T00:06:30;96493.72;;;23.65;48.29
30856;BME280;17570;0.000;0.000;2023-05-16T00:08:58;96486.34;;;23.67;48.13
30856;BME280;17570;0.000;0.000;2023-05-16T00:11:26;96493.27;;;23.68;48.97
30856;BME280;17570;0.000;0.000;2023-05-16T00:13:53;96491.65;;;23.67;47.81
30856;BME280;17570;0.000;0.000;2023-05-16T00:16:21;96486.80;;;23.64;48.42
30856;BME280;17570;0.000;0.000;2023-05-16T00:18:50;96483.12;;;23.65;48.03
30856;BME280;17570;0.000;0.000;2023-05-16T00:21:18;96483.12;;;23.65;47.81
30856;BME280;17570;0.000;0.000;2023-05-16T00:23:46;96480.47;;;23.65;47.74
30856;BME280;17570;0.000;0.000;2023-05-16T00:26:13;96487.19;;;23.61;47.84
30856;BME280;17570;0.000;0.000;2023-05-16T00:28:43;96483.31;;;23.64;47.92
30856;BME280;17570;0.000;0.000;2023-05-16T00:31:10;96486.80;;;23.64;48.10
30856;BME280;17570;0.000;0.000;2023-05-16T00:33:38;96495.56;;;23.65;47.84
30856;BME280;17570;0.000;0.000;2023-05-16T00:36:05;96499.83;;;23.66;48.26
30856;BME280;17570;0.000;0.000;2023-05-16T00:38:33;96497.79;;;23.61;48.08
30856;BME280;17570;0.000;0.000;2023-05-16T00:41:00;96492.49;;;23.61;48.10
30856;BME280;17570;0.000;0.000;2023-05-16T00:43:28;96495.95;;;23.62;48.17
30856;BME280;17570;0.000;0.000;2023-05-16T00:45:56;96501.25;;;23.62;48.11
30856;BME280;17570;0.000;0.000;2023-05-16T00:48:23;96482.31;;;23.58;48.02
30856;BME280;17570;0.000;0.000;2023-05-16T00:50:51;96478.63;;;23.59;48.05
30856;BME280;17570;0.000;0.000;2023-05-16T00:53:21;96476.59;;;23.61;48.02
30856;BME280;17570;0.000;0.000;2023-05-16T00:55:49;96474.98;;;23.60;48.91
30856;BME280;17570;0.000;0.000;2023-05-16T00:58:17;96475.40;;;23.57;47.84
30856;BME280;17570;0.000;0.000;2023-05-16T01:00:45;96468.67;;;23.55;47.89
30856;BME280;17570;0.000;0.000;2023-05-16T01:03:13;96468.48;;;23.56;47.74
30856;BME280;17570;0.000;0.000;2023-05-16T01:05:40;96461.56;;;23.55;48.13
30856;BME280;17570;0.000;0.000;2023-05-16T01:08:08;96456.05;;;23.57;47.83
30856;BME280;17570;0.000;0.000;2023-05-16T01:10:37;96461.56;;;23.55;48.19
30856;BME280;17570;0.000;0.000;2023-05-16T01:13:11;96460.95;;;23.53;48.29
30856;BME280;17570;0.000;0.000;2023-05-16T01:15:43;96460.38;;;23.51;47.99
30856;BME280;17570;0.000;0.000;2023-05-16T01:18:24;96463.02;;;23.51;48.35
30856;BME280;17570;0.000;0.000;2023-05-16T01:23:32;96460.95;;;23.53;48.29
30856;BME280;17570;0.000;0.000;2023-05-16T01:28:43;96458.70;;;23.57;48.00
30856;BME280;17570;0.000;0.000;2023-05-16T01:31:11;96457.66;;;23.58;47.94
30856;BME280;17570;0.000;0.000;2023-05-16T01:33:39;96455.81;;;23.58;47.94
30856;BME280;17570;0.000;0.000;2023-05-16T01:41:24;96460.08;;;23.59;47.77
30856;BME280;17570;0.000;0.000;2023-05-16T01:43:55;96457.08;;;23.56;47.78
30856;BME280;17570;0.000;0.000;2023-05-16T01:46:25;96454.20;;;23.57;48.30
30856;BME280;17570;0.000;0.000;2023-05-16T01:49:01;96460.15;;;23.53;47.75
30856;BME280;17570;0.000;0.000;2023-05-16T01:51:27;96450.97;;;23.55;47.92
30856;BME280;17570;0.000;0.000;2023-05-16T01:53:57;96455.23;;;23.56;47.95
30856;BME280;17570;0.000;0.000;2023-05-16T01:56:26;96455.44;;;23.55;47.89
30856;BME280;17570;0.000;0.000;2023-05-16T01:58:55;96450.36;;;23.53;47.89
30856;BME280;17570;0.000;0.000;2023-05-16T02:01:24;96455.27;;;23.50;47.93
30856;BME280;17570;0.000;0.000;2023-05-16T02:03:52;96461.18;;;23.52;47.74
30856;BME280;17570;0.000;0.000;2023-05-16T02:06:19;96459.11;;;23.54;47.88
30856;BME280;17570;0.000;0.000;2023-05-16T02:08:48;96436.95;;;23.48;48.28
30856;BME280;17570;0.000;0.000;2023-05-16T02:11:17;96446.32;;;23.51;47.60
30856;BME280;17570;0.000;0.000;2023-05-16T02:13:44;96455.66;;;23.53;47.63
30856;BME280;17570;0.000;0.000;2023-05-16T02:16:12;96448.97;;;23.51;47.59
30856;BME280;17570;0.000;0.000;2023-05-16T02:18:40;96451.81;;;23.49;47.56
30856;BME280;17570;0.000;0.000;2023-05-16T02:21:07;96448.36;;;23.49;47.50
30856;BME280;17570;0.000;0.000;2023-05-16T02:23:35;96443.67;;;23.51;47.56
30856;BME280;17570;0.000;0.000;2023-05-16T02:26:02;96448.16;;;23.50;47.70
30856;BME280;17570;0.000;0.000;2023-05-16T02:28:30;96448.81;;;23.46;47.46
30856;BME280;17570;0.000;0.000;2023-05-16T02:30:58;96433.72;;;23.46;47.57
30856;BME280;17570;0.000;0.000;2023-05-16T02:33:26;96443.28;;;23.47;47.72
30856;BME280;17570;0.000;0.000;2023-05-16T02:35:54;96446.97;;;23.46;47.75
30856;BME280;17570;0.000;0.000;2023-05-16T02:38:23;96453.27;;;23.45;47.52
30856;BME280;17570;0.000;0.000;2023-05-16T02:40:51;96449.45;;;23.41;47.63
30856;BME280;17570;0.000;0.000;2023-05-16T02:43:20;96435.59;;;23.39;47.91
30856;BME280;17570;0.000;0.000;2023-05-16T02:45:48;96438.86;;;23.41;47.61
30856;BME280;17570;0.000;0.000;2023-05-16T02:48:16;96439.28;;;23.38;47.84
30856;BME280;17570;0.000;0.000;2023-05-16T02:50:43;96439.70;;;23.35;47.66
30856;BME280;17570;0.000;0.000;2023-05-16T02:53:11;96435.02;;;23.37;47.61
30856;BME280;17570;0.000;0.000;2023-05-16T02:55:39;96431.33;;;23.38;47.61
30856;BME280;17570;0.000;0.000;2023-05-16T02:58:06;96439.92;;;23.33;47.66
30856;BME280;17570;0.000;0.000;2023-05-16T03:00:34;96441.77;;;23.33;47.73
30856;BME280;17570;0.000;0.000;2023-05-16T03:03:01;96447.06;;;23.33;47.59
30856;BME280;17570;0.000;0.000;2023-05-16T03:05:29;96450.74;;;23.32;47.73
30856;BME280;17570;0.000;0.000;2023-05-16T03:07:57;96449.55;;;23.28;48.11
30856;BME280;17570;0.000;0.000;2023-05-16T03:10:25;96461.36;;;23.25;47.96
30856;BME280;17570;0.000;0.000;2023-05-16T03:12:52;96457.49;;;23.28;47.71
30856;BME280;17570;0.000;0.000;2023-05-16T03:15:21;96458.49;;;23.27;48.08
30856;BME280;17570;0.000;0.000;2023-05-16T03:17:48;96449.97;;;23.25;48.05
30856;BME280;17570;0.000;0.000;2023-05-16T03:20:16;96460.78;;;23.23;48.25
30856;BME280;17570;0.000;0.000;2023-05-16T03:22:44;96458.49;;;23.27;48.03
30856;BME280;17570;0.000;0.000;2023-05-16T03:25:11;96459.75;;;23.24;48.18
30856;BME280;17570;0.000;0.000;2023-05-16T03:27:39;96467.47;;;23.26;47.94
30856;BME280;17570;0.000;0.000;2023-05-16T03:30:07;96462.40;;;23.24;47.97
30856;BME280;17570;0.000;0.000;2023-05-16T03:32:36;96470.34;;;23.24;48.24
30856;BME280;17570;0.000;0.000;2023-05-16T03:35:04;96459.97;;;23.23;48.06
30856;BME280;17570;0.000;0.000;2023-05-16T03:37:31;96458.13;;;23.23;48.24
30856;BME280;17570;0.000;0.000;2023-05-16T03:39:59;96460.33;;;23.26;48.12
30856;BME280;17570;0.000;0.000;2023-05-16T03:42:27;96471.15;;;23.25;48.36
30856;BME280;17570;0.000;0.000;2023-05-16T03:44:55;96475.02;;;23.22;48.35
30856;BME280;17570;0.000;0.000;2023-05-16T03:47:22;96473.41;;;23.21;48.17
30856;BME280;17570;0.000;0.000;2023-05-16T03:49:50;96475.02;;;23.22;48.24
30856;BME280;17570;0.000;0.000;2023-05-16T03:52:18;96477.48;;;23.24;48.15
30856;BME280;17570;0.000;0.000;2023-05-16T03:54:46;96478.06;;;23.26;47.94
30856;BME280;17570;0.000;0.000;2023-05-16T03:57:13;96492.11;;;23.26;47.94
30856;BME280;17570;0.000;0.000;2023-05-16T03:59:41;96491.30;;;23.26;48.06
30856;BME280;17570;0.000;0.000;2023-05-16T04:02:08;96495.56;;;23.27;48.08
30856;BME280;17570;0.000;0.000;2023-05-16T04:04:36;96489.69;;;23.25;48.29
30856;BME280;17570;0.000;0.000;2023-05-16T04:07:03;96491.30;;;23.26;48.25
30856;BME280;17570;0.000;0.000;2023-05-16T04:09:31;96500.86;;;23.27;48.18
30856;BME280;17570;0.000;0.000;2023-05-16T04:12:02;96499.47;;;23.24;48.35
30856;BME280;17570;0.000;0.000;2023-05-16T04:14:39;96494.77;;;23.26;48.30
30856;BME280;17570;0.000;0.000;2023-05-16T04:17:08;96505.58;;;23.25;48.27
30856;BME280;17570;0.000;0.000;2023-05-16T04:19:36;96503.73;;;23.25;48.53
30856;BME280;17570;0.000;0.000;2023-05-16T04:22:08;96498.44;;;23.25;48.28
30856;BME280;17570;0.000;0.000;2023-05-16T04:24:36;96492.56;;;23.23;48.31
30856;BME280;17570;0.000;0.000;2023-05-16T04:27:03;96495.20;;;23.23;48.54
30856;BME280;17570;0.000;0.000;2023-05-16T04:29:32;96503.96;;;23.24;48.78
30856;BME280;17570;0.000;0.000;2023-05-16T04:32:00;96514.11;;;23.27;48.61
30856;BME280;17570;0.000;0.000;2023-05-16T04:34:27;96510.65;;;23.26;48.28
30856;BME280;17570;0.000;0.000;2023-05-16T04:36:55;96504.13;;;23.29;48.31
30856;BME280;17570;0.000;0.000;2023-05-16T04:39:23;96505.75;;;23.30;48.17
30856;BME280;17570;0.000;0.000;2023-05-16T04:41:50;96498.61;;;23.30;48.34
30856;BME280;17570;0.000;0.000;2023-05-16T04:44:18;96494.92;;;23.31;48.49
30856;BME280;17570;0.000;0.000;2023-05-16T04:46:46;96479.04;;;23.31;48.40
30856;BME280;17570;0.000;0.000;2023-05-16T04:49:14;96491.28;;;23.32;48.29
30856;BME280;17570;0.000;0.000;2023-05-16T04:51:42;96492.89;;;23.33;48.49
30856;BME280;17570;0.000;0.000;2023-05-16T04:54:10;96495.55;;;23.33;48.20
30856;BME280;17570;0.000;0.000;2023-05-16T04:56:37;96495.06;;;23.43;48.68
30856;BME280;17570;0.000;0.000;2023-05-16T04:59:04;96494.53;;;23.59;49.56
30856;BME280;17570;0.000;0.000;2023-05-16T05:01:32;96494.75;;;23.64;49.29
30856;BME280;17570;0.000;0.000;2023-05-16T05:03:59;96494.33;;;23.61;49.20
30856;BME280;17570;0.000;0.000;2023-05-16T05:06:27;96503.51;;;23.58;49.13
30856;BME280;17570;0.000;0.000;2023-05-16T05:08:56;96506.97;;;23.59;48.82
30856;BME280;17570;0.000;0.000;2023-05-16T05:11:24;96500.86;;;23.58;48.92
30856;BME280;17570;0.000;0.000;2023-05-16T05:13:52;96516.76;;;23.58;48.72
30856;BME280;17570;0.000;0.000;2023-05-16T05:16:20;96516.56;;;23.60;48.58
30856;BME280;17570;0.000;0.000;2023-05-16T05:18:47;96521.25;;;23.58;48.56
30856;BME280;17570;0.000;0.000;2023-05-16T05:21:15;96509.62;;;23.59;48.69
30856;BME280;17570;0.000;0.000;2023-05-16T05:23:44;96513.08;;;23.59;48.50
30856;BME280;17570;0.000;0.000;2023-05-16T05:26:12;96520.83;;;23.61;48.72
30856;BME280;17570;0.000;0.000;2023-05-16T05:28:40;96523.90;;;23.64;48.38
30856;BME280;17570;0.000;0.000;2023-05-16T05:31:08;96528.55;;;23.62;48.53
30856;BME280;17570;0.000;0.000;2023-05-16T05:33:36;96529.20;;;23.64;48.25
30856;BME280;17570;0.000;0.000;2023-05-16T05:36:03;96514.91;;;23.65;48.12
30856;BME280;17570;0.000;0.000;2023-05-16T05:38:32;96513.47;;;23.70;48.43
30856;BME280;17570;0.000;0.000;2023-05-16T05:41:00;96513.56;;;23.81;50.35
30856;BME280;17570;0.000;0.000;2023-05-16T05:43:30;96521.63;;;23.93;50.28
30856;BME280;17570;0.000;0.000;2023-05-16T05:45:57;96520.75;;;23.99;49.80
30856;BME280;17570;0.000;0.000;2023-05-16T05:48:25;96510.95;;;24.00;49.70
30856;BME280;17570;0.000;0.000;2023-05-16T05:50:54;96516.64;;;24.03;49.25
30856;BME280;17570;0.000;0.000;2023-05-16T05:53:23;96528.44;;;24.07;48.91
30856;BME280;17570;0.000;0.000;2023-05-16T05:55:51;96527.98;;;24.10;48.79
30856;BME280;17570;0.000;0.000;2023-05-16T05:58:19;96525.52;;;24.15;48.58
30856;BME280;17570;0.000;0.000;2023-05-16T06:00:47;96524.25;;;24.18;48.34
30856;BME280;17570;0.000;0.000;2023-05-16T06:03:15;96512.61;;;24.19;47.96
30856;BME280;17570;0.000;0.000;2023-05-16T06:05:42;96515.06;;;24.21;47.63
30856;BME280;17570;0.000;0.000;2023-05-16T06:08:09;96512.76;;;24.24;47.89
30856;BME280;17570;0.000;0.000;2023-05-16T06:10:37;96506.92;;;24.40;48.76
30856;BME280;17570;0.000;0.000;2023-05-16T06:15:33;96503.67;;;24.57;48.11
30856;BME280;17570;0.000;0.000;2023-05-16T06:20:29;96508.69;;;24.65;47.40
30856;BME280;17570;0.000;0.000;2023-05-16T06:22:57;96506.64;;;24.67;47.51
30856;BME280;17570;0.000;0.000;2023-05-16T06:27:56;96503.52;;;24.70;46.83
30856;BME280;17570;0.000;0.000;2023-05-16T06:30:32;96512.66;;;24.74;46.94
30856;BME280;17570;0.000;0.000;2023-05-16T06:35:32;96519.38;;;24.77;46.91
30856;BME280;17570;0.000;0.000;2023-05-16T06:38:00;96513.61;;;24.80;46.64
30856;BME280;17570;0.000;0.000;2023-05-16T06:40:27;96510.95;;;24.80;46.86
30856;BME280;17570;0.000;0.000;2023-05-16T06:42:55;96506.92;;;24.77;46.53
30856;BME280;17570;0.000;0.000;2023-05-16T06:45:23;96509.71;;;24.82;46.61
30856;BME280;17570;0.000;0.000;2023-05-16T06:47:51;96505.72;;;24.91;46.58
30856;BME280;17570;0.000;0.000;2023-05-16T06:50:18;96499.13;;;24.94;46.35
30856;BME280;17570;0.000;0.000;2023-05-16T06:52:48;96494.19;;;24.98;46.74
30856;BME280;17570;0.000;0.000;2023-05-16T06:55:15;96478.42;;;25.33;48.38
30856;BME280;17570;0.000;0.000;2023-05-16T06:57:42;96488.63;;;25.59;48.06
30856;BME280;17570;0.000;0.000;2023-05-16T07:00:10;96480.33;;;25.67;47.25
30856;BME280;17570;0.000;0.000;2023-05-16T07:02:38;96484.59;;;25.68;47.07
30856;BME280;17570;0.000;0.000;2023-05-16T07:05:05;96488.75;;;25.64;46.61
30856;BME280;17570;0.000;0.000;2023-05-16T07:07:33;96491.16;;;25.54;46.20
30856;BME280;17570;0.000;0.000;2023-05-16T07:10:01;96500.63;;;25.50;46.14
30856;BME280;17570;0.000;0.000;2023-05-16T07:12:29;96492.20;;;25.53;45.79
30856;BME280;17570;0.000;0.000;2023-05-16T07:14:56;96490.36;;;25.54;46.01
30856;BME280;17570;0.000;0.000;2023-05-16T07:17:24;96495.44;;;25.55;45.93
30856;BME280;17570;0.000;0.000;2023-05-16T07:19:51;96494.87;;;25.53;45.90
30856;BME280;17570;0.000;0.000;2023-05-16T07:22:19;96491.16;;;25.54;45.81
30856;BME280;17570;0.000;0.000;2023-05-16T07:24:46;96495.67;;;25.54;45.78
30856;BME280;17570;0.000;0.000;2023-05-16T07:27:14;96500.98;;;25.54;45.66
30856;BME280;17570;0.000;0.000;2023-05-16T07:29:41;96504.24;;;25.56;45.47
30856;BME280;17570;0.000;0.000;2023-05-16T07:32:09;96511.53;;;25.60;45.59
30856;BME280;17570;0.000;0.000;2023-05-16T07:34:37;96522.38;;;25.59;45.54
30856;BME280;17570;0.000;0.000;2023-05-16T07:37:04;96517.53;;;25.56;45.91
30856;BME280;17570;0.000;0.000;2023-05-16T07:39:33;96514.04;;;25.55;46.14
30856;BME280;17570;0.000;0.000;2023-05-16T07:42:01;96520.64;;;25.53;46.20
30856;BME280;17570;0.000;0.000;2023-05-16T07:44:28;96517.98;;;25.53;46.04
30856;BME280;17570;0.000;0.000;2023-05-16T07:46:56;96515.89;;;25.55;46.13
30856;BME280;17570;0.000;0.000;2023-05-16T07:49:24;96505.50;;;25.53;45.97
30856;BME280;17570;0.000;0.000;2023-05-16T07:51:51;96503.88;;;25.52;46.27
30856;BME280;17570;0.000;0.000;2023-05-16T07:54:19;96509.41;;;25.51;46.31
30856;BME280;17570;0.000;0.000;2023-05-16T07:56:48;96515.09;;;25.54;46.11
30856;BME280;17570;0.000;0.000;2023-05-16T07:59:15;96511.38;;;25.55;45.99
30856;BME280;17570;0.000;0.000;2023-05-16T08:01:43;96515.69;;;25.56;45.82
30856;BME280;17570;0.000;0.000;2023-05-16T08:04:10;96501.71;;;25.61;45.52
30856;BME280;17570;0.000;0.000;2023-05-16T08:06:38;96494.75;;;25.60;45.47
30856;BME280;17570;0.000;0.000;2023-05-16T08:09:05;96501.47;;;25.62;45.87
30856;BME280;17570;0.000;0.000;2023-05-16T08:11:34;96516.17;;;25.65;46.08
30856;BME280;17570;0.000;0.000;2023-05-16T08:14:02;96519.16;;;25.68;45.79
30856;BME280;17570;0.000;0.000;2023-05-16T08:16:29;96511.78;;;25.70;45.92
30856;BME280;17570;0.000;0.000;2023-05-16T08:18:57;96510.89;;;25.77;45.49
30856;BME280;17570;0.000;0.000;2023-05-16T08:21:25;96537.59;;;25.82;45.18
30856;BME280;17570;0.000;0.000;2023-05-16T08:23:52;96524.78;;;25.90;44.97
30856;BME280;17570;0.000;0.000;2023-05-16T08:26:20;96506.63;;;25.99;44.68
30856;BME280;17570;0.000;0.000;2023-05-16T08:28:47;96495.42;;;26.09;44.31
30856;BME280;17570;0.000;0.000;2023-05-16T08:31:15;96487.66;;;26.19;44.37
30856;BME280;17570;0.000;0.000;2023-05-16T08:33:43;96491.59;;;26.28;44.41
30856;BME280;17570;0.000;0.000;2023-05-16T08:36:10;96488.12;;;26.39;43.87
30856;BME280;17570;0.000;0.000;2023-05-16T08:38:38;96481.39;;;26.49;43.59
30856;BME280;17570;0.000;0.000;2023-05-16T08:41:05;96480.82;;;26.58;43.58
30856;BME280;17570;0.000;0.000;2023-05-16T08:43:33;96485.75;;;26.66;43.79
30856;BME280;17570;0.000;0.000;2023-05-16T08:46:02;96493.97;;;26.77;43.20
30856;BME280;17570;0.000;0.000;2023-05-16T08:48:29;96489.30;;;26.84;42.92
30856;BME280;17570;0.000;0.000;2023-05-16T08:50:59;96492.41;;;26.92;43.04
30856;BME280;17570;0.000;0.000;2023-05-16T08:53:30;96494.70;;;27.01;42.72
30856;BME280;17570;0.000;0.000;2023-05-16T08:55:56;96482.27;;;27.06;42.13
30856;BME280;17570;0.000;0.000;2023-05-16T08:58:24;96483.54;;;27.15;42.37
30856;BME280;17570;0.000;0.000;2023-05-16T09:00:52;96489.05;;;27.26;42.51
30856;BME280;17570;0.000;0.000;2023-05-16T09:03:20;96497.26;;;27.53;42.25
30856;BME280;17570;0.000;0.000;2023-05-16T09:05:49;96491.62;;;27.83;41.65
30856;BME280;17570;0.000;0.000;2023-05-16T09:08:17;96489.11;;;27.93;41.06
30856;BME280;17570;0.000;0.000;2023-05-16T09:10:45;96484.91;;;27.97;41.63
30856;BME280;17570;0.000;0.000;2023-05-16T09:13:13;96483.38;;;28.01;41.74
30856;BME280;17570;0.000;0.000;2023-05-16T09:15:40;96481.58;;;28.07;41.46
30856;BME280;17570;0.000;0.000;2023-05-16T09:18:10;96490.23;;;28.14;40.89
30856;BME280;17570;0.000;0.000;2023-05-16T09:20:37;96470.34;;;28.21;40.62
30856;BME280;17570;0.000;0.000;2023-05-16T09:23:07;96479.03;;;28.34;40.77
30856;BME280;17570;0.000;0.000;2023-05-16T09:25:35;96476.52;;;28.44;40.58
30856;BME280;17570;0.000;0.000;2023-05-16T09:28:03;96476.67;;;28.54;40.58
30856;BME280;17570;0.000;0.000;2023-05-16T09:30:31;96481.07;;;28.65;40.26
30856;BME280;17570;0.000;0.000;2023-05-16T09:32:59;96476.91;;;28.75;40.75
30856;BME280;17570;0.000;0.000;2023-05-16T09:35:27;96475.95;;;28.86;40.67
30856;BME280;17570;0.000;0.000;2023-05-16T09:38:00;96473.19;;;28.97;40.78
30856;BME280;17570;0.000;0.000;2023-05-16T09:40:27;96461.80;;;29.07;40.11
